PWSweather.com
Personal Weather Stations
Station Observations
WODONGA
Wodonga, WodongaAU 3690

WodongaWodongaAU 3690

Lat: -36.121, Lon: 146.87

Elevation: 541

Station Type: Weather Station

http://www.wodongaweather.net

High Low Average
Temperature 97.7°F36.5°F 63.5°F17.5°F 82.0°F27.8°F
Dew Point 67.1°F19.5°F 44.3°F6.8°F 56.3°F13.5°F
Winds 9.9 mph NW15.9 mph NW 0.1 mph 0.2 mph 3.7 mph 6.0 mph
Wind Gusts 13.6 mph21.9 mph 0.7 mph1.1 mph 6.0 mph9.7 mph
Humidity 78% 17% 46%
Pressure 29.96 in1014.60 in 29.80 in1009.10 in -
Precipitation 0.00 in0.00 in - -
Hour Temp Dew Point Humidity Winds Wind Gusts Pressure Precip Precip Rate Daily Precip Total
03:30 AM 66.2°F19.0°C 57.7°F14.3°C 74% 0.8 mph SSW1.3 kmh SSW 1.6 mph2.6 kmh 29.91 in1012.9 mb 0.00 in0.0 mm 0.00 in0.0 mm 0.00 in0.0 mm
03:35 AM 66.0°F18.9°C 57.5°F14.2°C 74% 1.4 mph S2.3 kmh S 1.6 mph2.6 kmh 29.91 in1012.9 mb 0.00 in0.0 mm 0.00 in0.0 mm 0.00 in0.0 mm
03:40 AM 65.7°F18.7°C 57.5°F14.2°C 75% 1.3 mph S2.1 kmh S 1.6 mph2.6 kmh 29.91 in1012.9 mb 0.00 in0.0 mm 0.00 in0.0 mm 0.00 in0.0 mm
03:45 AM 65.7°F18.7°C 57.5°F14.2°C 75% 1.4 mph S2.3 kmh S 2.2 mph3.5 kmh 29.91 in1012.9 mb 0.00 in0.0 mm 0.00 in0.0 mm 0.00 in0.0 mm
03:50 AM 65.5°F18.6°C 57.4°F14.1°C 75% 1.3 mph S2.1 kmh S 2.2 mph3.5 kmh 29.91 in1012.9 mb 0.00 in0.0 mm 0.00 in0.0 mm 0.00 in0.0 mm
03:55 AM 65.1°F18.4°C 57.4°F14.1°C 76% 1.2 mph SSW1.9 kmh SSW 2.2 mph3.5 kmh 29.91 in1012.9 mb 0.00 in0.0 mm 0.00 in0.0 mm 0.00 in0.0 mm
04:00 AM 64.8°F18.2°C 57.0°F13.9°C 76% 1.8 mph S2.9 kmh S 3.1 mph5.0 kmh 29.91 in1012.9 mb 0.00 in0.0 mm 0.00 in0.0 mm 0.00 in0.0 mm
04:05 AM 64.8°F18.2°C 57.0°F13.9°C 76% 2.2 mph S3.5 kmh S 3.1 mph5.0 kmh 29.91 in1012.9 mb 0.00 in0.0 mm 0.00 in0.0 mm 0.00 in0.0 mm
04:10 AM 64.6°F18.1°C 56.9°F13.8°C 76% 2.3 mph S3.7 kmh S 3.1 mph5.0 kmh 29.91 in1012.9 mb 0.00 in0.0 mm 0.00 in0.0 mm 0.00 in0.0 mm
04:15 AM 64.2°F17.9°C 56.9°F13.8°C 77% 2.3 mph S3.7 kmh S 3.1 mph5.0 kmh 29.91 in1012.9 mb 0.00 in0.0 mm 0.00 in0.0 mm 0.00 in0.0 mm
04:20 AM 64.2°F17.9°C 56.9°F13.8°C 77% 2.1 mph S3.4 kmh S 2.2 mph3.5 kmh 29.91 in1012.9 mb 0.00 in0.0 mm 0.00 in0.0 mm 0.00 in0.0 mm
04:25 AM 64.4°F18.0°C 57.1°F13.9°C 77% 2.1 mph S3.4 kmh S 2.2 mph3.5 kmh 29.91 in1012.9 mb 0.00 in0.0 mm 0.00 in0.0 mm 0.00 in0.0 mm
04:30 AM 64.4°F18.0°C 56.7°F13.7°C 76% 2.1 mph S3.4 kmh S 2.2 mph3.5 kmh 29.91 in1012.9 mb 0.00 in0.0 mm 0.00 in0.0 mm 0.00 in0.0 mm
04:35 AM 64.2°F17.9°C 56.9°F13.8°C 77% 2.1 mph S3.4 kmh S 2.2 mph3.5 kmh 29.92 in1013.2 mb 0.00 in0.0 mm 0.00 in0.0 mm 0.00 in0.0 mm
04:40 AM 64.2°F17.9°C 56.9°F13.8°C 77% 2.0 mph S3.2 kmh S 2.2 mph3.5 kmh 29.91 in1012.9 mb 0.00 in0.0 mm 0.00 in0.0 mm 0.00 in0.0 mm
04:45 AM 64.2°F17.9°C 56.9°F13.8°C 77% 1.7 mph S2.7 kmh S 2.2 mph3.5 kmh 29.92 in1013.2 mb 0.00 in0.0 mm 0.00 in0.0 mm 0.00 in0.0 mm
04:50 AM 64.2°F17.9°C 56.9°F13.8°C 77% 1.0 mph S1.6 kmh S 2.2 mph3.5 kmh 29.92 in1013.2 mb 0.00 in0.0 mm 0.00 in0.0 mm 0.00 in0.0 mm
04:55 AM 64.4°F18.0°C 57.1°F13.9°C 77% 1.3 mph S2.1 kmh S 3.1 mph5.0 kmh 29.92 in1013.2 mb 0.00 in0.0 mm 0.00 in0.0 mm 0.00 in0.0 mm
05:00 AM 64.2°F17.9°C 56.9°F13.8°C 77% 1.9 mph S3.1 kmh S 3.1 mph5.0 kmh 29.92 in1013.2 mb 0.00 in0.0 mm 0.00 in0.0 mm 0.00 in0.0 mm
05:05 AM 64.0°F17.8°C 56.7°F13.7°C 77% 2.0 mph S3.2 kmh S 3.1 mph5.0 kmh 29.92 in1013.2 mb 0.00 in0.0 mm 0.00 in0.0 mm 0.00 in0.0 mm
05:10 AM 64.2°F17.9°C 56.9°F13.8°C 77% 2.4 mph SSE3.9 kmh SSE 3.1 mph5.0 kmh 29.92 in1013.2 mb 0.00 in0.0 mm 0.00 in0.0 mm 0.00 in0.0 mm
05:15 AM 64.2°F17.9°C 56.9°F13.8°C 77% 2.3 mph SSE3.7 kmh SSE 3.1 mph5.0 kmh 29.92 in1013.2 mb 0.00 in0.0 mm 0.00 in0.0 mm 0.00 in0.0 mm
05:20 AM 64.0°F17.8°C 56.7°F13.7°C 77% 1.8 mph SSE2.9 kmh SSE 2.2 mph3.5 kmh 29.92 in1013.2 mb 0.00 in0.0 mm 0.00 in0.0 mm 0.00 in0.0 mm
05:25 AM 63.9°F17.7°C 56.5°F13.6°C 77% 1.1 mph S1.8 kmh S 2.2 mph3.5 kmh 29.93 in1013.5 mb 0.00 in0.0 mm 0.00 in0.0 mm 0.00 in0.0 mm
05:30 AM 63.7°F17.6°C 56.7°F13.7°C 78% 1.0 mph SSW1.6 kmh SSW 2.2 mph3.5 kmh 29.93 in1013.5 mb 0.00 in0.0 mm 0.00 in0.0 mm 0.00 in0.0 mm
05:35 AM 63.5°F17.5°C 56.5°F13.6°C 78% 1.7 mph SSE2.7 kmh SSE 2.2 mph3.5 kmh 29.93 in1013.5 mb 0.00 in0.0 mm 0.00 in0.0 mm 0.00 in0.0 mm
05:40 AM 63.5°F17.5°C 56.5°F13.6°C 78% 2.1 mph SE3.4 kmh SE 3.1 mph5.0 kmh 29.93 in1013.5 mb 0.00 in0.0 mm 0.00 in0.0 mm 0.00 in0.0 mm
05:45 AM 63.7°F17.6°C 56.7°F13.7°C 78% 2.4 mph SE3.9 kmh SE 3.1 mph5.0 kmh 29.93 in1013.5 mb 0.00 in0.0 mm 0.00 in0.0 mm 0.00 in0.0 mm
05:50 AM 63.7°F17.6°C 56.7°F13.7°C 78% 2.7 mph SE4.3 kmh SE 3.1 mph5.0 kmh 29.93 in1013.5 mb 0.00 in0.0 mm 0.00 in0.0 mm 0.00 in0.0 mm
05:55 AM 63.7°F17.6°C 56.7°F13.7°C 78% 2.3 mph SSE3.7 kmh SSE 3.1 mph5.0 kmh 29.93 in1013.5 mb 0.00 in0.0 mm 0.00 in0.0 mm 0.00 in0.0 mm
06:00 AM 63.9°F17.7°C 56.9°F13.8°C 78% 1.8 mph S2.9 kmh S 2.2 mph3.5 kmh 29.93 in1013.5 mb 0.00 in0.0 mm 0.00 in0.0 mm 0.00 in0.0 mm
06:05 AM 63.9°F17.7°C 56.9°F13.8°C 78% 1.9 mph S3.1 kmh S 2.2 mph3.5 kmh 29.93 in1013.5 mb 0.00 in0.0 mm 0.00 in0.0 mm 0.00 in0.0 mm
06:10 AM 64.0°F17.8°C 57.1°F13.9°C 78% 2.3 mph S3.7 kmh S 3.1 mph5.0 kmh 29.94 in1013.9 mb 0.00 in0.0 mm 0.00 in0.0 mm 0.00 in0.0 mm
06:15 AM 64.4°F18.0°C 57.1°F13.9°C 77% 2.5 mph S4.0 kmh S 3.1 mph5.0 kmh 29.93 in1013.5 mb 0.00 in0.0 mm 0.00 in0.0 mm 0.00 in0.0 mm
06:20 AM 64.8°F18.2°C 57.4°F14.1°C 77% 2.8 mph SSE4.5 kmh SSE 3.8 mph6.1 kmh 29.94 in1013.9 mb 0.00 in0.0 mm 0.00 in0.0 mm 0.00 in0.0 mm
06:25 AM 64.9°F18.3°C 57.6°F14.2°C 77% 3.0 mph SSE4.8 kmh SSE 3.8 mph6.1 kmh 29.93 in1013.5 mb 0.00 in0.0 mm 0.00 in0.0 mm 0.00 in0.0 mm
06:30 AM 64.9°F18.3°C 57.6°F14.2°C 77% 3.0 mph S4.8 kmh S 3.8 mph6.1 kmh 29.94 in1013.9 mb 0.00 in0.0 mm 0.00 in0.0 mm 0.00 in0.0 mm
06:35 AM 65.3°F18.5°C 57.9°F14.4°C 77% 3.0 mph S4.8 kmh S 3.8 mph6.1 kmh 29.94 in1013.9 mb 0.00 in0.0 mm 0.00 in0.0 mm 0.00 in0.0 mm
06:40 AM 65.5°F18.6°C 58.1°F14.5°C 77% 2.8 mph SE4.5 kmh SE 3.8 mph6.1 kmh 29.94 in1013.9 mb 0.00 in0.0 mm 0.00 in0.0 mm 0.00 in0.0 mm
06:45 AM 65.8°F18.8°C 58.1°F14.5°C 76% 2.7 mph SE4.3 kmh SE 3.8 mph6.1 kmh 29.95 in1014.2 mb 0.00 in0.0 mm 0.00 in0.0 mm 0.00 in0.0 mm
06:50 AM 66.0°F18.9°C 58.3°F14.6°C 76% 2.8 mph SSE4.5 kmh SSE 3.8 mph6.1 kmh 29.95 in1014.2 mb 0.00 in0.0 mm 0.00 in0.0 mm 0.00 in0.0 mm
06:55 AM 66.4°F19.1°C 58.6°F14.8°C 76% 2.8 mph SE4.5 kmh SE 3.8 mph6.1 kmh 29.95 in1014.2 mb 0.00 in0.0 mm 0.00 in0.0 mm 0.00 in0.0 mm
07:00 AM 66.7°F19.3°C 58.6°F14.8°C 75% 2.7 mph SE4.3 kmh SE 3.8 mph6.1 kmh 29.95 in1014.2 mb 0.00 in0.0 mm 0.00 in0.0 mm 0.00 in0.0 mm
07:05 AM 67.1°F19.5°C 58.9°F14.9°C 75% 3.0 mph SSE4.8 kmh SSE 5.4 mph8.7 kmh 29.95 in1014.2 mb 0.00 in0.0 mm 0.00 in0.0 mm 0.00 in0.0 mm
07:10 AM 67.5°F19.7°C 58.9°F14.9°C 74% 3.2 mph SSE5.1 kmh SSE 5.4 mph8.7 kmh 29.95 in1014.2 mb 0.00 in0.0 mm 0.00 in0.0 mm 0.00 in0.0 mm
07:15 AM 68.0°F20.0°C 59.4°F15.2°C 74% 2.9 mph SSE4.7 kmh SSE 3.8 mph6.1 kmh 29.95 in1014.2 mb 0.00 in0.0 mm 0.00 in0.0 mm 0.00 in0.0 mm
07:20 AM 68.5°F20.3°C 59.9°F15.5°C 74% 3.0 mph SE4.8 kmh SE 3.8 mph6.1 kmh 29.95 in1014.2 mb 0.00 in0.0 mm 0.00 in0.0 mm 0.00 in0.0 mm
07:25 AM 69.1°F20.6°C 60.1°F15.6°C 73% 3.1 mph SE5.0 kmh SE 4.5 mph7.2 kmh 29.96 in1014.6 mb 0.00 in0.0 mm 0.00 in0.0 mm 0.00 in0.0 mm
07:30 AM 69.6°F20.9°C 60.2°F15.7°C 72% 2.9 mph SE4.7 kmh SE 4.5 mph7.2 kmh 29.96 in1014.6 mb 0.00 in0.0 mm 0.00 in0.0 mm 0.00 in0.0 mm
07:35 AM 70.5°F21.4°C 60.7°F15.9°C 71% 2.8 mph ESE4.5 kmh ESE 3.1 mph5.0 kmh 29.96 in1014.6 mb 0.00 in0.0 mm 0.00 in0.0 mm 0.00 in0.0 mm
07:40 AM 71.4°F21.9°C 61.2°F16.2°C 70% 2.8 mph ESE4.5 kmh ESE 3.8 mph6.1 kmh 29.96 in1014.6 mb 0.00 in0.0 mm 0.00 in0.0 mm 0.00 in0.0 mm
07:45 AM 72.1°F22.3°C 61.4°F16.3°C 69% 3.2 mph SE5.1 kmh SE 4.5 mph7.2 kmh 29.96 in1014.6 mb 0.00 in0.0 mm 0.00 in0.0 mm 0.00 in0.0 mm
07:50 AM 72.9°F22.7°C 61.7°F16.5°C 68% 3.5 mph SE5.6 kmh SE 4.5 mph7.2 kmh 29.96 in1014.6 mb 0.00 in0.0 mm 0.00 in0.0 mm 0.00 in0.0 mm
07:55 AM 73.8°F23.2°C 62.6°F17.0°C 68% 3.5 mph SE5.6 kmh SE 4.5 mph7.2 kmh 29.96 in1014.6 mb 0.00 in0.0 mm 0.00 in0.0 mm 0.00 in0.0 mm
08:00 AM 74.5°F23.6°C 62.4°F16.9°C 66% 3.6 mph SE5.8 kmh SE 4.5 mph7.2 kmh 29.96 in1014.6 mb 0.00 in0.0 mm 0.00 in0.0 mm 0.00 in0.0 mm
08:05 AM 75.0°F23.9°C 62.5°F16.9°C 65% 3.7 mph SE6.0 kmh SE 4.5 mph7.2 kmh 29.96 in1014.6 mb 0.00 in0.0 mm 0.00 in0.0 mm 0.00 in0.0 mm
08:10 AM 75.4°F24.1°C 62.8°F17.1°C 65% 3.6 mph ESE5.8 kmh ESE 4.5 mph7.2 kmh 29.96 in1014.6 mb 0.00 in0.0 mm 0.00 in0.0 mm 0.00 in0.0 mm
08:15 AM 75.7°F24.3°C 62.7°F17.1°C 64% 3.7 mph E6.0 kmh E 6.0 mph9.7 kmh 29.96 in1014.6 mb 0.00 in0.0 mm 0.00 in0.0 mm 0.00 in0.0 mm
08:20 AM 76.5°F24.7°C 63.4°F17.4°C 64% 4.8 mph E7.7 kmh E 8.3 mph13.4 kmh 29.95 in1014.2 mb 0.00 in0.0 mm 0.00 in0.0 mm 0.00 in0.0 mm
08:25 AM 76.8°F24.9°C 63.3°F17.4°C 63% 4.2 mph E6.8 kmh E 8.3 mph13.4 kmh 29.96 in1014.6 mb 0.00 in0.0 mm 0.00 in0.0 mm 0.00 in0.0 mm
08:30 AM 76.8°F24.9°C 63.3°F17.4°C 63% 3.9 mph ENE6.3 kmh ENE 6.9 mph11.1 kmh 29.96 in1014.6 mb 0.00 in0.0 mm 0.00 in0.0 mm 0.00 in0.0 mm
08:35 AM 77.4°F25.2°C 63.4°F17.4°C 62% 4.7 mph E7.6 kmh E 6.9 mph11.1 kmh 29.96 in1014.6 mb 0.00 in0.0 mm 0.00 in0.0 mm 0.00 in0.0 mm
08:40 AM 77.5°F25.3°C 63.5°F17.5°C 62% 4.5 mph ESE7.2 kmh ESE 6.9 mph11.1 kmh 29.96 in1014.6 mb 0.00 in0.0 mm 0.00 in0.0 mm 0.00 in0.0 mm
08:45 AM 78.3°F25.7°C 64.2°F17.9°C 62% 4.6 mph E7.4 kmh E 6.9 mph11.1 kmh 29.95 in1014.2 mb 0.00 in0.0 mm 0.00 in0.0 mm 0.00 in0.0 mm
08:50 AM 78.3°F25.7°C 63.7°F17.6°C 61% 5.8 mph ENE9.3 kmh ENE 12.1 mph19.5 kmh 29.95 in1014.2 mb 0.00 in0.0 mm 0.00 in0.0 mm 0.00 in0.0 mm
08:55 AM 78.8°F26.0°C 64.3°F17.9°C 61% 6.1 mph NE9.8 kmh NE 12.1 mph19.5 kmh 29.95 in1014.2 mb 0.00 in0.0 mm 0.00 in0.0 mm 0.00 in0.0 mm
09:00 AM 79.2°F26.2°C 64.6°F18.1°C 61% 5.2 mph E8.4 kmh E 9.8 mph15.8 kmh 29.95 in1014.2 mb 0.00 in0.0 mm 0.00 in0.0 mm 0.00 in0.0 mm
09:05 AM 79.5°F26.4°C 64.9°F18.3°C 61% 4.5 mph E7.2 kmh E 6.9 mph11.1 kmh 29.95 in1014.2 mb 0.00 in0.0 mm 0.00 in0.0 mm 0.00 in0.0 mm
09:10 AM 79.9°F26.6°C 65.3°F18.5°C 61% 3.9 mph ENE6.3 kmh ENE 6.9 mph11.1 kmh 29.95 in1014.2 mb 0.00 in0.0 mm 0.00 in0.0 mm 0.00 in0.0 mm
09:15 AM 81.1°F27.3°C 66.0°F18.9°C 60% 4.4 mph E7.1 kmh E 7.6 mph12.2 kmh 29.95 in1014.2 mb 0.00 in0.0 mm 0.00 in0.0 mm 0.00 in0.0 mm
09:20 AM 81.1°F27.3°C 65.5°F18.6°C 59% 4.7 mph ESE7.6 kmh ESE 7.6 mph12.2 kmh 29.95 in1014.2 mb 0.00 in0.0 mm 0.00 in0.0 mm 0.00 in0.0 mm
09:25 AM 81.9°F27.7°C 65.7°F18.7°C 58% 5.2 mph E8.4 kmh E 9.2 mph14.8 kmh 29.95 in1014.2 mb 0.00 in0.0 mm 0.00 in0.0 mm 0.00 in0.0 mm
09:30 AM 82.9°F28.3°C 66.7°F19.3°C 58% 5.8 mph E9.3 kmh E 9.2 mph14.8 kmh 29.95 in1014.2 mb 0.00 in0.0 mm 0.00 in0.0 mm 0.00 in0.0 mm
09:35 AM 82.9°F28.3°C 66.2°F19.0°C 57% 4.8 mph E7.7 kmh E 8.3 mph13.4 kmh 29.94 in1013.9 mb 0.00 in0.0 mm 0.00 in0.0 mm 0.00 in0.0 mm
09:40 AM 82.9°F28.3°C 66.2°F19.0°C 57% 4.5 mph NE7.2 kmh NE 6.0 mph9.7 kmh 29.95 in1014.2 mb 0.00 in0.0 mm 0.00 in0.0 mm 0.00 in0.0 mm
09:45 AM 83.7°F28.7°C 66.9°F19.4°C 57% 4.7 mph E7.6 kmh E 6.0 mph9.7 kmh 29.95 in1014.2 mb 0.00 in0.0 mm 0.00 in0.0 mm 0.00 in0.0 mm
09:50 AM 83.5°F28.6°C 65.7°F18.7°C 55% 4.3 mph ENE6.9 kmh ENE 5.4 mph8.7 kmh 29.95 in1014.2 mb 0.00 in0.0 mm 0.00 in0.0 mm 0.00 in0.0 mm
09:55 AM 84.2°F29.0°C 65.8°F18.8°C 54% 4.3 mph NE6.9 kmh NE 7.6 mph12.2 kmh 29.95 in1014.2 mb 0.00 in0.0 mm 0.00 in0.0 mm 0.00 in0.0 mm
10:00 AM 84.2°F29.0°C 64.2°F17.9°C 51% 5.7 mph NE9.2 kmh NE 8.3 mph13.4 kmh 29.94 in1013.9 mb 0.00 in0.0 mm 0.00 in0.0 mm 0.00 in0.0 mm
10:05 AM 84.2°F29.0°C 64.2°F17.9°C 51% 6.1 mph N9.8 kmh N 8.3 mph13.4 kmh 29.94 in1013.9 mb 0.00 in0.0 mm 0.00 in0.0 mm 0.00 in0.0 mm
10:10 AM 84.9°F29.4°C 64.8°F18.2°C 51% 6.2 mph NE10.0 kmh NE 8.3 mph13.4 kmh 29.94 in1013.9 mb 0.00 in0.0 mm 0.00 in0.0 mm 0.00 in0.0 mm
10:15 AM 86.2°F30.1°C 64.8°F18.2°C 49% 6.2 mph E10.0 kmh E 8.3 mph13.4 kmh 29.93 in1013.5 mb 0.00 in0.0 mm 0.00 in0.0 mm 0.00 in0.0 mm
10:20 AM 86.4°F30.2°C 65.6°F18.7°C 50% 4.2 mph NE6.8 kmh NE 7.6 mph12.2 kmh 29.93 in1013.5 mb 0.00 in0.0 mm 0.00 in0.0 mm 0.00 in0.0 mm
10:25 AM 86.4°F30.2°C 65.6°F18.7°C 50% 3.5 mph N5.6 kmh N 7.6 mph12.2 kmh 29.93 in1013.5 mb 0.00 in0.0 mm 0.00 in0.0 mm 0.00 in0.0 mm
10:30 AM 85.8°F29.9°C 64.5°F18.1°C 49% 5.8 mph N9.3 kmh N 9.2 mph14.8 kmh 29.93 in1013.5 mb 0.00 in0.0 mm 0.00 in0.0 mm 0.00 in0.0 mm
10:35 AM 86.5°F30.3°C 65.7°F18.7°C 50% 6.6 mph N10.6 kmh N 10.7 mph17.2 kmh 29.93 in1013.5 mb 0.00 in0.0 mm 0.00 in0.0 mm 0.00 in0.0 mm
10:40 AM 88.0°F31.1°C 65.9°F18.8°C 48% 6.4 mph ENE10.3 kmh ENE 10.7 mph17.2 kmh 29.93 in1013.5 mb 0.00 in0.0 mm 0.00 in0.0 mm 0.00 in0.0 mm
10:45 AM 88.5°F31.4°C 65.8°F18.8°C 47% 6.9 mph E11.1 kmh E 10.7 mph17.2 kmh 29.93 in1013.5 mb 0.00 in0.0 mm 0.00 in0.0 mm 0.00 in0.0 mm
10:50 AM 89.2°F31.8°C 67.0°F19.4°C 48% 5.2 mph E8.4 kmh E 9.8 mph15.8 kmh 29.92 in1013.2 mb 0.00 in0.0 mm 0.00 in0.0 mm 0.00 in0.0 mm
10:55 AM 90.0°F32.2°C 66.5°F19.2°C 46% 3.9 mph ENE6.3 kmh ENE 6.9 mph11.1 kmh 29.92 in1013.2 mb 0.00 in0.0 mm 0.00 in0.0 mm 0.00 in0.0 mm
11:00 AM 89.8°F32.1°C 66.3°F19.1°C 46% 4.7 mph ENE7.6 kmh ENE 6.9 mph11.1 kmh 29.92 in1013.2 mb 0.00 in0.0 mm 0.00 in0.0 mm 0.00 in0.0 mm
11:05 AM 89.4°F31.9°C 65.3°F18.5°C 45% 5.9 mph N9.5 kmh N 9.8 mph15.8 kmh 29.92 in1013.2 mb 0.00 in0.0 mm 0.00 in0.0 mm 0.00 in0.0 mm
11:10 AM 88.9°F31.6°C 64.9°F18.3°C 45% 5.7 mph NNW9.2 kmh NNW 9.8 mph15.8 kmh 29.91 in1012.9 mb 0.00 in0.0 mm 0.00 in0.0 mm 0.00 in0.0 mm
11:15 AM 89.4°F31.9°C 65.3°F18.5°C 45% 5.4 mph N8.7 kmh N 8.3 mph13.4 kmh 29.91 in1012.9 mb 0.00 in0.0 mm 0.00 in0.0 mm 0.00 in0.0 mm
11:20 AM 89.6°F32.0°C 65.5°F18.6°C 45% 5.9 mph N9.5 kmh N 9.2 mph14.8 kmh 29.91 in1012.9 mb 0.00 in0.0 mm 0.00 in0.0 mm 0.00 in0.0 mm
11:25 AM 89.8°F32.1°C 65.7°F18.7°C 45% 5.5 mph NNW8.9 kmh NNW 9.2 mph14.8 kmh 29.91 in1012.9 mb 0.00 in0.0 mm 0.00 in0.0 mm 0.00 in0.0 mm
11:30 AM 90.9°F32.7°C 66.6°F19.2°C 45% 4.5 mph NNW7.2 kmh NNW 7.6 mph12.2 kmh 29.91 in1012.9 mb 0.00 in0.0 mm 0.00 in0.0 mm 0.00 in0.0 mm
11:35 AM 92.1°F33.4°C 67.1°F19.5°C 44% 3.5 mph ENE5.6 kmh ENE 5.4 mph8.7 kmh 29.90 in1012.5 mb 0.00 in0.0 mm 0.00 in0.0 mm 0.00 in0.0 mm
11:40 AM 92.1°F33.4°C 66.5°F19.2°C 43% 3.0 mph WNW4.8 kmh WNW 4.5 mph7.2 kmh 29.90 in1012.5 mb 0.00 in0.0 mm 0.00 in0.0 mm 0.00 in0.0 mm
11:45 AM 92.3°F33.5°C 64.6°F18.1°C 40% 3.3 mph N5.3 kmh N 6.9 mph11.1 kmh 29.90 in1012.5 mb 0.00 in0.0 mm 0.00 in0.0 mm 0.00 in0.0 mm
11:50 AM 92.3°F33.5°C 65.3°F18.5°C 41% 3.6 mph ENE5.8 kmh ENE 6.9 mph11.1 kmh 29.90 in1012.5 mb 0.00 in0.0 mm 0.00 in0.0 mm 0.00 in0.0 mm
11:55 AM 91.4°F33.0°C 61.5°F16.4°C 37% 5.3 mph NNW8.5 kmh NNW 9.8 mph15.8 kmh 29.89 in1012.2 mb 0.00 in0.0 mm 0.00 in0.0 mm 0.00 in0.0 mm
12:00 PM 91.0°F32.8°C 61.2°F16.2°C 37% 7.8 mph NW12.6 kmh NW 10.7 mph17.2 kmh 29.89 in1012.2 mb 0.00 in0.0 mm 0.00 in0.0 mm 0.00 in0.0 mm
12:05 PM 91.2°F32.9°C 60.6°F15.9°C 36% 6.7 mph NW10.8 kmh NW 10.7 mph17.2 kmh 29.89 in1012.2 mb 0.00 in0.0 mm 0.00 in0.0 mm 0.00 in0.0 mm
12:10 PM 91.2°F32.9°C 60.6°F15.9°C 36% 5.2 mph WNW8.4 kmh WNW 6.9 mph11.1 kmh 29.89 in1012.2 mb 0.00 in0.0 mm 0.00 in0.0 mm 0.00 in0.0 mm
12:15 PM 91.9°F33.3°C 61.2°F16.2°C 36% 5.3 mph W8.5 kmh W 9.8 mph15.8 kmh 29.89 in1012.2 mb 0.00 in0.0 mm 0.00 in0.0 mm 0.00 in0.0 mm
12:20 PM 92.7°F33.7°C 57.7°F14.3°C 31% 5.8 mph WSW9.3 kmh WSW 12.1 mph19.5 kmh 29.89 in1012.2 mb 0.00 in0.0 mm 0.00 in0.0 mm 0.00 in0.0 mm
12:25 PM 92.3°F33.5°C 58.2°F14.6°C 32% 7.4 mph WSW11.9 kmh WSW 12.1 mph19.5 kmh 29.88 in1011.9 mb 0.00 in0.0 mm 0.00 in0.0 mm 0.00 in0.0 mm
12:30 PM 93.0°F33.9°C 58.9°F14.9°C 32% 7.5 mph WSW12.1 kmh WSW 12.1 mph19.5 kmh 29.88 in1011.9 mb 0.00 in0.0 mm 0.00 in0.0 mm 0.00 in0.0 mm
12:35 PM 93.2°F34.0°C 59.9°F15.5°C 33% 5.4 mph W8.7 kmh W 9.2 mph14.8 kmh 29.88 in1011.9 mb 0.00 in0.0 mm 0.00 in0.0 mm 0.00 in0.0 mm
12:40 PM 94.5°F34.7°C 61.8°F16.6°C 34% 3.8 mph SW6.1 kmh SW 6.9 mph11.1 kmh 29.88 in1011.9 mb 0.00 in0.0 mm 0.00 in0.0 mm 0.00 in0.0 mm
12:45 PM 94.6°F34.8°C 58.5°F14.7°C 30% 4.0 mph WSW6.4 kmh WSW 6.9 mph11.1 kmh 29.87 in1011.5 mb 0.00 in0.0 mm 0.00 in0.0 mm 0.00 in0.0 mm
12:50 PM 93.9°F34.4°C 56.9°F13.8°C 29% 5.9 mph WNW9.5 kmh WNW 8.3 mph13.4 kmh 29.87 in1011.5 mb 0.00 in0.0 mm 0.00 in0.0 mm 0.00 in0.0 mm
12:55 PM 93.4°F34.1°C 56.4°F13.6°C 29% 7.3 mph WNW11.7 kmh WNW 12.1 mph19.5 kmh 29.87 in1011.5 mb 0.00 in0.0 mm 0.00 in0.0 mm 0.00 in0.0 mm
01:00 PM 93.6°F34.2°C 57.5°F14.2°C 30% 8.3 mph WNW13.4 kmh WNW 13.0 mph20.9 kmh 29.87 in1011.5 mb 0.00 in0.0 mm 0.00 in0.0 mm 0.00 in0.0 mm
01:05 PM 93.2°F34.0°C 56.3°F13.5°C 29% 8.9 mph W14.3 kmh W 13.0 mph20.9 kmh 29.87 in1011.5 mb 0.00 in0.0 mm 0.00 in0.0 mm 0.00 in0.0 mm
01:10 PM 93.4°F34.1°C 58.3°F14.6°C 31% 6.7 mph W10.8 kmh W 12.1 mph19.5 kmh 29.86 in1011.2 mb 0.00 in0.0 mm 0.00 in0.0 mm 0.00 in0.0 mm
01:15 PM 93.9°F34.4°C 56.9°F13.8°C 29% 4.7 mph NW7.6 kmh NW 9.2 mph14.8 kmh 29.86 in1011.2 mb 0.00 in0.0 mm 0.00 in0.0 mm 0.00 in0.0 mm
01:20 PM 94.3°F34.6°C 58.2°F14.6°C 30% 6.2 mph NW10.0 kmh NW 10.7 mph17.2 kmh 29.86 in1011.2 mb 0.00 in0.0 mm 0.00 in0.0 mm 0.00 in0.0 mm
01:25 PM 94.5°F34.7°C 57.4°F14.1°C 29% 6.6 mph WNW10.6 kmh WNW 10.7 mph17.2 kmh 29.86 in1011.2 mb 0.00 in0.0 mm 0.00 in0.0 mm 0.00 in0.0 mm
01:30 PM 94.8°F34.9°C 55.7°F13.2°C 27% 5.0 mph NW8.0 kmh NW 7.6 mph12.2 kmh 29.86 in1011.2 mb 0.00 in0.0 mm 0.00 in0.0 mm 0.00 in0.0 mm
01:35 PM 95.0°F35.0°C 54.8°F12.7°C 26% 4.7 mph NW7.6 kmh NW 13.6 mph21.9 kmh 29.86 in1011.2 mb 0.00 in0.0 mm 0.00 in0.0 mm 0.00 in0.0 mm
01:40 PM 94.3°F34.6°C 54.2°F12.3°C 26% 7.4 mph WNW11.9 kmh WNW 13.6 mph21.9 kmh 29.85 in1010.8 mb 0.00 in0.0 mm 0.00 in0.0 mm 0.00 in0.0 mm
01:45 PM 94.8°F34.9°C 55.7°F13.2°C 27% 9.9 mph NW15.9 kmh NW 13.6 mph21.9 kmh 29.85 in1010.8 mb 0.00 in0.0 mm 0.00 in0.0 mm 0.00 in0.0 mm
01:50 PM 94.5°F34.7°C 54.3°F12.4°C 26% 9.2 mph NW14.8 kmh NW 13.0 mph20.9 kmh 29.85 in1010.8 mb 0.00 in0.0 mm 0.00 in0.0 mm 0.00 in0.0 mm
01:55 PM 94.6°F34.8°C 54.5°F12.5°C 26% 8.3 mph WNW13.4 kmh WNW 13.0 mph20.9 kmh 29.85 in1010.8 mb 0.00 in0.0 mm 0.00 in0.0 mm 0.00 in0.0 mm
02:00 PM 95.2°F35.1°C 56.0°F13.3°C 27% 7.8 mph NW12.6 kmh NW 10.7 mph17.2 kmh 29.84 in1010.5 mb 0.00 in0.0 mm 0.00 in0.0 mm 0.00 in0.0 mm
02:05 PM 95.9°F35.5°C 54.5°F12.5°C 25% 5.3 mph NW8.5 kmh NW 10.7 mph17.2 kmh 29.84 in1010.5 mb 0.00 in0.0 mm 0.00 in0.0 mm 0.00 in0.0 mm
02:10 PM 97.0°F36.1°C 57.5°F14.2°C 27% 3.4 mph WSW5.5 kmh WSW 6.0 mph9.7 kmh 29.84 in1010.5 mb 0.00 in0.0 mm 0.00 in0.0 mm 0.00 in0.0 mm
02:15 PM 96.6°F35.9°C 56.2°F13.4°C 26% 4.9 mph WNW7.9 kmh WNW 9.8 mph15.8 kmh 29.84 in1010.5 mb 0.00 in0.0 mm 0.00 in0.0 mm 0.00 in0.0 mm
02:20 PM 97.0°F36.1°C 57.5°F14.2°C 27% 6.3 mph NW10.1 kmh NW 9.8 mph15.8 kmh 29.83 in1010.2 mb 0.00 in0.0 mm 0.00 in0.0 mm 0.00 in0.0 mm
02:25 PM 97.0°F36.1°C 56.5°F13.6°C 26% 6.8 mph WNW10.9 kmh WNW 12.1 mph19.5 kmh 29.83 in1010.2 mb 0.00 in0.0 mm 0.00 in0.0 mm 0.00 in0.0 mm
02:30 PM 97.3°F36.3°C 57.8°F14.3°C 27% 6.5 mph NW10.5 kmh NW 12.1 mph19.5 kmh 29.83 in1010.2 mb 0.00 in0.0 mm 0.00 in0.0 mm 0.00 in0.0 mm
02:35 PM 97.0°F36.1°C 53.1°F11.7°C 23% 5.2 mph W8.4 kmh W 9.2 mph14.8 kmh 29.83 in1010.2 mb 0.00 in0.0 mm 0.00 in0.0 mm 0.00 in0.0 mm
02:40 PM 95.9°F35.5°C 53.4°F11.9°C 24% 6.9 mph WNW11.1 kmh WNW 12.1 mph19.5 kmh 29.82 in1009.8 mb 0.00 in0.0 mm 0.00 in0.0 mm 0.00 in0.0 mm
02:45 PM 95.2°F35.1°C 53.9°F12.2°C 25% 8.5 mph NW13.7 kmh NW 12.1 mph19.5 kmh 29.83 in1010.2 mb 0.00 in0.0 mm 0.00 in0.0 mm 0.00 in0.0 mm
02:50 PM 95.2°F35.1°C 53.9°F12.2°C 25% 6.3 mph NW10.1 kmh NW 9.8 mph15.8 kmh 29.83 in1010.2 mb 0.00 in0.0 mm 0.00 in0.0 mm 0.00 in0.0 mm
02:55 PM 95.9°F35.5°C 54.5°F12.5°C 25% 4.5 mph WNW7.2 kmh WNW 7.6 mph12.2 kmh 29.82 in1009.8 mb 0.00 in0.0 mm 0.00 in0.0 mm 0.00 in0.0 mm
03:00 PM 96.6°F35.9°C 52.8°F11.6°C 23% 3.8 mph W6.1 kmh W 7.6 mph12.2 kmh 29.82 in1009.8 mb 0.00 in0.0 mm 0.00 in0.0 mm 0.00 in0.0 mm
03:05 PM 97.3°F36.3°C 50.9°F10.5°C 21% 3.9 mph SSW6.3 kmh SSW 6.0 mph9.7 kmh 29.82 in1009.8 mb 0.00 in0.0 mm 0.00 in0.0 mm 0.00 in0.0 mm
03:10 PM 97.5°F36.4°C 49.8°F9.9°C 20% 5.6 mph NW9.0 kmh NW 9.2 mph14.8 kmh 29.81 in1009.5 mb 0.00 in0.0 mm 0.00 in0.0 mm 0.00 in0.0 mm
03:15 PM 97.5°F36.4°C 47.0°F8.3°C 18% 6.8 mph NW10.9 kmh NW 9.2 mph14.8 kmh 29.82 in1009.8 mb 0.00 in0.0 mm 0.00 in0.0 mm 0.00 in0.0 mm
03:20 PM 96.1°F35.6°C 44.3°F6.8°C 17% 8.1 mph NW13.0 kmh NW 13.0 mph20.9 kmh 29.81 in1009.5 mb 0.00 in0.0 mm 0.00 in0.0 mm 0.00 in0.0 mm
03:25 PM 96.4°F35.8°C 46.1°F7.8°C 18% 6.9 mph WNW11.1 kmh WNW 13.0 mph20.9 kmh 29.81 in1009.5 mb 0.00 in0.0 mm 0.00 in0.0 mm 0.00 in0.0 mm
03:30 PM 97.3°F36.3°C 45.3°F7.4°C 17% 4.6 mph W7.4 kmh W 7.6 mph12.2 kmh 29.81 in1009.5 mb 0.00 in0.0 mm 0.00 in0.0 mm 0.00 in0.0 mm
03:35 PM 97.7°F36.5°C 45.6°F7.6°C 17% 4.6 mph WNW7.4 kmh WNW 7.6 mph12.2 kmh 29.81 in1009.5 mb 0.00 in0.0 mm 0.00 in0.0 mm 0.00 in0.0 mm
03:40 PM 97.2°F36.2°C 45.2°F7.3°C 17% 5.4 mph NW8.7 kmh NW 7.6 mph12.2 kmh 29.80 in1009.1 mb 0.00 in0.0 mm 0.00 in0.0 mm 0.00 in0.0 mm
03:45 PM 97.7°F36.5°C 47.1°F8.4°C 18% 5.7 mph WNW9.2 kmh WNW 7.6 mph12.2 kmh 29.80 in1009.1 mb 0.00 in0.0 mm 0.00 in0.0 mm 0.00 in0.0 mm
03:50 PM 97.3°F36.3°C 48.3°F9.1°C 19% 4.1 mph WNW6.6 kmh WNW 7.6 mph12.2 kmh 29.81 in1009.5 mb 0.00 in0.0 mm 0.00 in0.0 mm 0.00 in0.0 mm
03:55 PM 97.0°F36.1°C 51.9°F11.1°C 22% 3.3 mph W5.3 kmh W 6.0 mph9.7 kmh 29.80 in1009.1 mb 0.00 in0.0 mm 0.00 in0.0 mm 0.00 in0.0 mm
04:00 PM 95.7°F35.4°C 48.3°F9.1°C 20% 4.9 mph NW7.9 kmh NW 8.3 mph13.4 kmh 29.80 in1009.1 mb 0.00 in0.0 mm 0.00 in0.0 mm 0.00 in0.0 mm
04:05 PM 95.2°F35.1°C 47.9°F8.8°C 20% 5.9 mph NW9.5 kmh NW 8.3 mph13.4 kmh 29.80 in1009.1 mb 0.00 in0.0 mm 0.00 in0.0 mm 0.00 in0.0 mm
04:10 PM 94.3°F34.6°C 47.1°F8.4°C 20% 5.8 mph NNW9.3 kmh NNW 7.6 mph12.2 kmh 29.80 in1009.1 mb 0.00 in0.0 mm 0.00 in0.0 mm 0.00 in0.0 mm
04:15 PM 93.6°F34.2°C 49.1°F9.5°C 22% 4.7 mph NNE7.6 kmh NNE 7.6 mph12.2 kmh 29.81 in1009.5 mb 0.00 in0.0 mm 0.00 in0.0 mm 0.00 in0.0 mm
04:20 PM 93.0°F33.9°C 47.4°F8.6°C 21% 4.8 mph NW7.7 kmh NW 11.4 mph18.3 kmh 29.80 in1009.1 mb 0.00 in0.0 mm 0.00 in0.0 mm 0.00 in0.0 mm
04:25 PM 92.8°F33.8°C 48.5°F9.2°C 22% 5.7 mph NW9.2 kmh NW 11.4 mph18.3 kmh 29.80 in1009.1 mb 0.00 in0.0 mm 0.00 in0.0 mm 0.00 in0.0 mm
04:30 PM 93.2°F34.0°C 51.1°F10.6°C 24% 4.2 mph WNW6.8 kmh WNW 9.2 mph14.8 kmh 29.80 in1009.1 mb 0.00 in0.0 mm 0.00 in0.0 mm 0.00 in0.0 mm
04:35 PM 94.5°F34.7°C 52.2°F11.2°C 24% 3.2 mph SW5.1 kmh SW 6.0 mph9.7 kmh 29.80 in1009.1 mb 0.00 in0.0 mm 0.00 in0.0 mm 0.00 in0.0 mm
04:40 PM 95.7°F35.4°C 52.1°F11.2°C 23% 2.3 mph SW3.7 kmh SW 3.8 mph6.1 kmh 29.80 in1009.1 mb 0.00 in0.0 mm 0.00 in0.0 mm 0.00 in0.0 mm
04:45 PM 97.0°F36.1°C 50.6°F10.3°C 21% 2.4 mph WSW3.9 kmh WSW 3.8 mph6.1 kmh 29.80 in1009.1 mb 0.00 in0.0 mm 0.00 in0.0 mm 0.00 in0.0 mm
04:50 PM 96.4°F35.8°C 48.9°F9.4°C 20% 3.8 mph W6.1 kmh W 5.4 mph8.7 kmh 29.80 in1009.1 mb 0.00 in0.0 mm 0.00 in0.0 mm 0.00 in0.0 mm
04:55 PM 95.9°F35.5°C 49.8°F9.9°C 21% 5.1 mph W8.2 kmh W 7.6 mph12.2 kmh 29.80 in1009.1 mb 0.00 in0.0 mm 0.00 in0.0 mm 0.00 in0.0 mm
05:00 PM 95.9°F35.5°C 48.4°F9.1°C 20% 5.7 mph W9.2 kmh W 7.6 mph12.2 kmh 29.80 in1009.1 mb 0.00 in0.0 mm 0.00 in0.0 mm 0.00 in0.0 mm
05:05 PM 95.4°F35.2°C 48.0°F8.9°C 20% 5.4 mph WNW8.7 kmh WNW 8.3 mph13.4 kmh 29.80 in1009.1 mb 0.00 in0.0 mm 0.00 in0.0 mm 0.00 in0.0 mm
05:10 PM 94.5°F34.7°C 47.3°F8.5°C 20% 6.5 mph W10.5 kmh W 9.8 mph15.8 kmh 29.80 in1009.1 mb 0.00 in0.0 mm 0.00 in0.0 mm 0.00 in0.0 mm
05:15 PM 94.1°F34.5°C 47.0°F8.3°C 20% 6.5 mph W10.5 kmh W 9.8 mph15.8 kmh 29.81 in1009.5 mb 0.00 in0.0 mm 0.00 in0.0 mm 0.00 in0.0 mm
05:20 PM 93.4°F34.1°C 47.7°F8.7°C 21% 4.5 mph WNW7.2 kmh WNW 7.6 mph12.2 kmh 29.81 in1009.5 mb 0.00 in0.0 mm 0.00 in0.0 mm 0.00 in0.0 mm
05:25 PM 93.2°F34.0°C 48.8°F9.3°C 22% 3.4 mph W5.5 kmh W 6.0 mph9.7 kmh 29.80 in1009.1 mb 0.00 in0.0 mm 0.00 in0.0 mm 0.00 in0.0 mm
05:30 PM 93.0°F33.9°C 48.6°F9.2°C 22% 3.0 mph W4.8 kmh W 6.0 mph9.7 kmh 29.80 in1009.1 mb 0.00 in0.0 mm 0.00 in0.0 mm 0.00 in0.0 mm
05:35 PM 93.4°F34.1°C 50.1°F10.1°C 23% 3.0 mph WSW4.8 kmh WSW 8.3 mph13.4 kmh 29.80 in1009.1 mb 0.00 in0.0 mm 0.00 in0.0 mm 0.00 in0.0 mm
05:40 PM 92.8°F33.8°C 50.8°F10.4°C 24% 4.0 mph WSW6.4 kmh WSW 8.3 mph13.4 kmh 29.80 in1009.1 mb 0.00 in0.0 mm 0.00 in0.0 mm 0.00 in0.0 mm
05:45 PM 92.1°F33.4°C 50.2°F10.1°C 24% 3.8 mph WSW6.1 kmh WSW 8.3 mph13.4 kmh 29.81 in1009.5 mb 0.00 in0.0 mm 0.00 in0.0 mm 0.00 in0.0 mm
05:50 PM 91.6°F33.1°C 48.6°F9.2°C 23% 3.7 mph W6.0 kmh W 6.0 mph9.7 kmh 29.81 in1009.5 mb 0.00 in0.0 mm 0.00 in0.0 mm 0.00 in0.0 mm
05:55 PM 90.7°F32.6°C 50.1°F10.1°C 25% 3.7 mph W6.0 kmh W 6.0 mph9.7 kmh 29.81 in1009.5 mb 0.00 in0.0 mm 0.00 in0.0 mm 0.00 in0.0 mm
06:00 PM 90.3°F32.4°C 51.9°F11.1°C 27% 2.5 mph W4.0 kmh W 4.5 mph7.2 kmh 29.81 in1009.5 mb 0.00 in0.0 mm 0.00 in0.0 mm 0.00 in0.0 mm
06:05 PM 90.0°F32.2°C 50.5°F10.3°C 26% 2.6 mph WSW4.2 kmh WSW 6.0 mph9.7 kmh 29.81 in1009.5 mb 0.00 in0.0 mm 0.00 in0.0 mm 0.00 in0.0 mm
06:10 PM 89.4°F31.9°C 51.1°F10.6°C 27% 3.2 mph WSW5.1 kmh WSW 6.0 mph9.7 kmh 29.81 in1009.5 mb 0.00 in0.0 mm 0.00 in0.0 mm 0.00 in0.0 mm
06:15 PM 89.1°F31.7°C 51.8°F11.0°C 28% 3.0 mph WSW4.8 kmh WSW 5.4 mph8.7 kmh 29.82 in1009.8 mb 0.00 in0.0 mm 0.00 in0.0 mm 0.00 in0.0 mm
06:20 PM 88.5°F31.4°C 52.3°F11.3°C 29% 3.0 mph WSW4.8 kmh WSW 5.4 mph8.7 kmh 29.82 in1009.8 mb 0.00 in0.0 mm 0.00 in0.0 mm 0.00 in0.0 mm
06:25 PM 88.2°F31.2°C 51.9°F11.1°C 29% 3.5 mph W5.6 kmh W 5.4 mph8.7 kmh 29.82 in1009.8 mb 0.00 in0.0 mm 0.00 in0.0 mm 0.00 in0.0 mm
06:30 PM 87.6°F30.9°C 52.4°F11.3°C 30% 3.6 mph W5.8 kmh W 5.4 mph8.7 kmh 29.82 in1009.8 mb 0.00 in0.0 mm 0.00 in0.0 mm 0.00 in0.0 mm
06:35 PM 87.3°F30.7°C 52.1°F11.2°C 30% 3.6 mph W5.8 kmh W 5.4 mph8.7 kmh 29.82 in1009.8 mb 0.00 in0.0 mm 0.00 in0.0 mm 0.00 in0.0 mm
06:40 PM 86.9°F30.5°C 52.7°F11.5°C 31% 3.5 mph WSW5.6 kmh WSW 6.0 mph9.7 kmh 29.82 in1009.8 mb 0.00 in0.0 mm 0.00 in0.0 mm 0.00 in0.0 mm
06:45 PM 86.5°F30.3°C 52.4°F11.3°C 31% 3.8 mph W6.1 kmh W 6.0 mph9.7 kmh 29.83 in1010.2 mb 0.00 in0.0 mm 0.00 in0.0 mm 0.00 in0.0 mm
06:50 PM 86.2°F30.1°C 52.1°F11.2°C 31% 4.5 mph W7.2 kmh W 6.0 mph9.7 kmh 29.83 in1010.2 mb 0.00 in0.0 mm 0.00 in0.0 mm 0.00 in0.0 mm
06:55 PM 86.0°F30.0°C 52.8°F11.6°C 32% 4.5 mph WSW7.2 kmh WSW 6.0 mph9.7 kmh 29.83 in1010.2 mb 0.00 in0.0 mm 0.00 in0.0 mm 0.00 in0.0 mm
07:00 PM 85.6°F29.8°C 52.4°F11.3°C 32% 4.4 mph WSW7.1 kmh WSW 6.0 mph9.7 kmh 29.83 in1010.2 mb 0.00 in0.0 mm 0.00 in0.0 mm 0.00 in0.0 mm
07:05 PM 85.3°F29.6°C 53.0°F11.7°C 33% 4.1 mph WSW6.6 kmh WSW 6.0 mph9.7 kmh 29.84 in1010.5 mb 0.00 in0.0 mm 0.00 in0.0 mm 0.00 in0.0 mm
07:10 PM 84.9°F29.4°C 53.5°F11.9°C 34% 3.3 mph WSW5.3 kmh WSW 5.4 mph8.7 kmh 29.84 in1010.5 mb 0.00 in0.0 mm 0.00 in0.0 mm 0.00 in0.0 mm
07:15 PM 84.7°F29.3°C 54.1°F12.3°C 35% 2.6 mph WSW4.2 kmh WSW 4.5 mph7.2 kmh 29.84 in1010.5 mb 0.00 in0.0 mm 0.00 in0.0 mm 0.00 in0.0 mm
07:20 PM 84.4°F29.1°C 53.8°F12.1°C 35% 2.3 mph WSW3.7 kmh WSW 3.8 mph6.1 kmh 29.84 in1010.5 mb 0.00 in0.0 mm 0.00 in0.0 mm 0.00 in0.0 mm
07:25 PM 84.0°F28.9°C 54.2°F12.3°C 36% 2.1 mph WSW3.4 kmh WSW 3.8 mph6.1 kmh 29.84 in1010.5 mb 0.00 in0.0 mm 0.00 in0.0 mm 0.00 in0.0 mm
07:30 PM 83.7°F28.7°C 54.7°F12.6°C 37% 1.7 mph W2.7 kmh W 3.8 mph6.1 kmh 29.84 in1010.5 mb 0.00 in0.0 mm 0.00 in0.0 mm 0.00 in0.0 mm
07:35 PM 83.3°F28.5°C 54.4°F12.4°C 37% 1.7 mph WSW2.7 kmh WSW 3.1 mph5.0 kmh 29.84 in1010.5 mb 0.00 in0.0 mm 0.00 in0.0 mm 0.00 in0.0 mm
07:40 PM 83.1°F28.4°C 54.9°F12.7°C 38% 1.7 mph WSW2.7 kmh WSW 3.1 mph5.0 kmh 29.84 in1010.5 mb 0.00 in0.0 mm 0.00 in0.0 mm 0.00 in0.0 mm
07:45 PM 82.9°F28.3°C 54.8°F12.7°C 38% 1.6 mph WSW2.6 kmh WSW 2.2 mph3.5 kmh 29.84 in1010.5 mb 0.00 in0.0 mm 0.00 in0.0 mm 0.00 in0.0 mm
07:50 PM 82.6°F28.1°C 54.4°F12.4°C 38% 1.7 mph WSW2.7 kmh WSW 2.2 mph3.5 kmh 29.84 in1010.5 mb 0.00 in0.0 mm 0.00 in0.0 mm 0.00 in0.0 mm
07:55 PM 82.0°F27.8°C 54.0°F12.2°C 38% 1.1 mph WSW1.8 kmh WSW 1.6 mph2.6 kmh 29.85 in1010.8 mb 0.00 in0.0 mm 0.00 in0.0 mm 0.00 in0.0 mm
08:00 PM 81.7°F27.6°C 53.6°F12.0°C 38% 1.0 mph W1.6 kmh W 2.2 mph3.5 kmh 29.85 in1010.8 mb 0.00 in0.0 mm 0.00 in0.0 mm 0.00 in0.0 mm
08:05 PM 81.5°F27.5°C 54.2°F12.3°C 39% 1.1 mph W1.8 kmh W 2.2 mph3.5 kmh 29.85 in1010.8 mb 0.00 in0.0 mm 0.00 in0.0 mm 0.00 in0.0 mm
08:10 PM 81.1°F27.3°C 54.6°F12.6°C 40% 1.0 mph W1.6 kmh W 1.6 mph2.6 kmh 29.85 in1010.8 mb 0.00 in0.0 mm 0.00 in0.0 mm 0.00 in0.0 mm
08:15 PM 80.8°F27.1°C 53.6°F12.0°C 39% 1.7 mph NW2.7 kmh NW 3.1 mph5.0 kmh 29.85 in1010.8 mb 0.00 in0.0 mm 0.00 in0.0 mm 0.00 in0.0 mm
08:20 PM 80.4°F26.9°C 53.2°F11.8°C 39% 2.4 mph NW3.9 kmh NW 3.1 mph5.0 kmh 29.86 in1011.2 mb 0.00 in0.0 mm 0.00 in0.0 mm 0.00 in0.0 mm
08:25 PM 80.2°F26.8°C 53.8°F12.1°C 40% 2.2 mph NW3.5 kmh NW 3.1 mph5.0 kmh 29.86 in1011.2 mb 0.00 in0.0 mm 0.00 in0.0 mm 0.00 in0.0 mm
08:30 PM 80.2°F26.8°C 53.8°F12.1°C 40% 2.5 mph WNW4.0 kmh WNW 3.1 mph5.0 kmh 29.86 in1011.2 mb 0.00 in0.0 mm 0.00 in0.0 mm 0.00 in0.0 mm
08:35 PM 80.2°F26.8°C 51.6°F10.9°C 37% 3.1 mph WNW5.0 kmh WNW 4.5 mph7.2 kmh 29.86 in1011.2 mb 0.00 in0.0 mm 0.00 in0.0 mm 0.00 in0.0 mm
08:40 PM 80.1°F26.7°C 52.2°F11.2°C 38% 3.2 mph NW5.1 kmh NW 4.5 mph7.2 kmh 29.86 in1011.2 mb 0.00 in0.0 mm 0.00 in0.0 mm 0.00 in0.0 mm
08:45 PM 80.2°F26.8°C 53.8°F12.1°C 40% 2.6 mph NW4.2 kmh NW 3.8 mph6.1 kmh 29.86 in1011.2 mb 0.00 in0.0 mm 0.00 in0.0 mm 0.00 in0.0 mm
08:50 PM 80.2°F26.8°C 53.1°F11.7°C 39% 2.0 mph WNW3.2 kmh WNW 3.1 mph5.0 kmh 29.86 in1011.2 mb 0.00 in0.0 mm 0.00 in0.0 mm 0.00 in0.0 mm
08:55 PM 80.1°F26.7°C 52.9°F11.6°C 39% 2.0 mph W3.2 kmh W 3.1 mph5.0 kmh 29.87 in1011.5 mb 0.00 in0.0 mm 0.00 in0.0 mm 0.00 in0.0 mm
09:00 PM 79.9°F26.6°C 52.8°F11.6°C 39% 1.5 mph W2.4 kmh W 3.1 mph5.0 kmh 29.86 in1011.2 mb 0.00 in0.0 mm 0.00 in0.0 mm 0.00 in0.0 mm
09:05 PM 79.5°F26.4°C 53.1°F11.7°C 40% 1.0 mph S1.6 kmh S 2.2 mph3.5 kmh 29.86 in1011.2 mb 0.00 in0.0 mm 0.00 in0.0 mm 0.00 in0.0 mm
09:10 PM 79.2°F26.2°C 54.1°F12.3°C 42% 1.1 mph SE1.8 kmh SE 2.2 mph3.5 kmh 29.87 in1011.5 mb 0.00 in0.0 mm 0.00 in0.0 mm 0.00 in0.0 mm
09:15 PM 78.6°F25.9°C 54.3°F12.4°C 43% 1.4 mph SE2.3 kmh SE 3.1 mph5.0 kmh 29.87 in1011.5 mb 0.00 in0.0 mm 0.00 in0.0 mm 0.00 in0.0 mm
09:20 PM 78.4°F25.8°C 53.5°F11.9°C 42% 2.0 mph E3.2 kmh E 3.1 mph5.0 kmh 29.86 in1011.2 mb 0.00 in0.0 mm 0.00 in0.0 mm 0.00 in0.0 mm
09:25 PM 78.1°F25.6°C 51.8°F11.0°C 40% 2.7 mph N4.3 kmh N 3.8 mph6.1 kmh 29.87 in1011.5 mb 0.00 in0.0 mm 0.00 in0.0 mm 0.00 in0.0 mm
09:30 PM 77.9°F25.5°C 50.3°F10.2°C 38% 3.2 mph N5.1 kmh N 3.8 mph6.1 kmh 29.87 in1011.5 mb 0.00 in0.0 mm 0.00 in0.0 mm 0.00 in0.0 mm
09:35 PM 77.7°F25.4°C 49.4°F9.7°C 37% 3.3 mph NNW5.3 kmh NNW 3.8 mph6.1 kmh 29.87 in1011.5 mb 0.00 in0.0 mm 0.00 in0.0 mm 0.00 in0.0 mm
09:40 PM 77.5°F25.3°C 49.2°F9.6°C 37% 3.1 mph NW5.0 kmh NW 3.8 mph6.1 kmh 29.87 in1011.5 mb 0.00 in0.0 mm 0.00 in0.0 mm 0.00 in0.0 mm
09:45 PM 78.1°F25.6°C 49.0°F9.4°C 36% 3.4 mph WNW5.5 kmh WNW 4.5 mph7.2 kmh 29.87 in1011.5 mb 0.00 in0.0 mm 0.00 in0.0 mm 0.00 in0.0 mm
09:50 PM 78.1°F25.6°C 48.2°F9.0°C 35% 4.0 mph W6.4 kmh W 5.4 mph8.7 kmh 29.87 in1011.5 mb 0.00 in0.0 mm 0.00 in0.0 mm 0.00 in0.0 mm
09:55 PM 77.9°F25.5°C 48.1°F8.9°C 35% 3.5 mph W5.6 kmh W 5.4 mph8.7 kmh 29.87 in1011.5 mb 0.00 in0.0 mm 0.00 in0.0 mm 0.00 in0.0 mm
10:00 PM 77.9°F25.5°C 51.0°F10.6°C 39% 2.8 mph SW4.5 kmh SW 3.8 mph6.1 kmh 29.87 in1011.5 mb 0.00 in0.0 mm 0.00 in0.0 mm 0.00 in0.0 mm
10:05 PM 77.4°F25.2°C 52.5°F11.4°C 42% 2.7 mph E4.3 kmh E 3.8 mph6.1 kmh 29.87 in1011.5 mb 0.00 in0.0 mm 0.00 in0.0 mm 0.00 in0.0 mm
10:10 PM 77.0°F25.0°C 52.8°F11.6°C 43% 2.3 mph E3.7 kmh E 3.1 mph5.0 kmh 29.87 in1011.5 mb 0.00 in0.0 mm 0.00 in0.0 mm 0.00 in0.0 mm
10:15 PM 76.6°F24.8°C 53.1°F11.7°C 44% 1.7 mph S2.7 kmh S 3.1 mph5.0 kmh 29.87 in1011.5 mb 0.00 in0.0 mm 0.00 in0.0 mm 0.00 in0.0 mm
10:20 PM 76.5°F24.7°C 53.6°F12.0°C 45% 1.8 mph S2.9 kmh S 3.1 mph5.0 kmh 29.87 in1011.5 mb 0.00 in0.0 mm 0.00 in0.0 mm 0.00 in0.0 mm
10:25 PM 76.1°F24.5°C 53.3°F11.8°C 45% 1.5 mph S2.4 kmh S 3.1 mph5.0 kmh 29.87 in1011.5 mb 0.00 in0.0 mm 0.00 in0.0 mm 0.00 in0.0 mm
10:30 PM 75.7°F24.3°C 53.5°F11.9°C 46% 0.8 mph SSW1.3 kmh SSW 1.6 mph2.6 kmh 29.87 in1011.5 mb 0.00 in0.0 mm 0.00 in0.0 mm 0.00 in0.0 mm
10:35 PM 75.4°F24.1°C 53.2°F11.8°C 46% 0.3 mph SW0.5 kmh SW 1.6 mph2.6 kmh 29.87 in1011.5 mb 0.00 in0.0 mm 0.00 in0.0 mm 0.00 in0.0 mm
10:40 PM 75.2°F24.0°C 53.6°F12.0°C 47% 0.1 mph SW0.2 kmh SW 0.7 mph1.1 kmh 29.87 in1011.5 mb 0.00 in0.0 mm 0.00 in0.0 mm 0.00 in0.0 mm
10:45 PM 75.0°F23.9°C 53.5°F11.9°C 47% 0.8 mph SE1.3 kmh SE 3.8 mph6.1 kmh 29.87 in1011.5 mb 0.00 in0.0 mm 0.00 in0.0 mm 0.00 in0.0 mm
10:50 PM 74.8°F23.8°C 53.9°F12.2°C 48% 1.3 mph SE2.1 kmh SE 3.8 mph6.1 kmh 29.87 in1011.5 mb 0.00 in0.0 mm 0.00 in0.0 mm 0.00 in0.0 mm
10:55 PM 74.5°F23.6°C 54.1°F12.3°C 49% 1.5 mph ESE2.4 kmh ESE 3.8 mph6.1 kmh 29.87 in1011.5 mb 0.00 in0.0 mm 0.00 in0.0 mm 0.00 in0.0 mm
11:00 PM 74.3°F23.5°C 53.9°F12.2°C 49% 1.6 mph ESE2.6 kmh ESE 3.1 mph5.0 kmh 29.87 in1011.5 mb 0.00 in0.0 mm 0.00 in0.0 mm 0.00 in0.0 mm
11:05 PM 74.1°F23.4°C 53.8°F12.1°C 49% 1.6 mph SE2.6 kmh SE 3.1 mph5.0 kmh 29.88 in1011.9 mb 0.00 in0.0 mm 0.00 in0.0 mm 0.00 in0.0 mm
11:10 PM 73.9°F23.3°C 54.2°F12.3°C 50% 1.9 mph SE3.1 kmh SE 2.2 mph3.5 kmh 29.87 in1011.5 mb 0.00 in0.0 mm 0.00 in0.0 mm 0.00 in0.0 mm
11:15 PM 73.6°F23.1°C 53.8°F12.1°C 50% 1.9 mph SSE3.1 kmh SSE 2.2 mph3.5 kmh 29.87 in1011.5 mb 0.00 in0.0 mm 0.00 in0.0 mm 0.00 in0.0 mm
11:20 PM 73.6°F23.1°C 54.4°F12.4°C 51% 1.8 mph S2.9 kmh S 2.2 mph3.5 kmh 29.87 in1011.5 mb 0.00 in0.0 mm 0.00 in0.0 mm 0.00 in0.0 mm
11:25 PM 73.4°F23.0°C 54.2°F12.3°C 51% 1.5 mph S2.4 kmh S 2.2 mph3.5 kmh 29.87 in1011.5 mb 0.00 in0.0 mm 0.00 in0.0 mm 0.00 in0.0 mm
11:30 PM 73.4°F23.0°C 54.2°F12.3°C 51% 1.1 mph S1.8 kmh S 1.6 mph2.6 kmh 29.87 in1011.5 mb 0.00 in0.0 mm 0.00 in0.0 mm 0.00 in0.0 mm
11:35 PM 72.9°F22.7°C 54.2°F12.3°C 52% 1.6 mph S2.6 kmh S 3.1 mph5.0 kmh 29.87 in1011.5 mb 0.00 in0.0 mm 0.00 in0.0 mm 0.00 in0.0 mm
11:40 PM 72.7°F22.6°C 54.1°F12.3°C 52% 2.1 mph S3.4 kmh S 3.1 mph5.0 kmh 29.87 in1011.5 mb 0.00 in0.0 mm 0.00 in0.0 mm 0.00 in0.0 mm
11:50 PM 72.3°F22.4°C 53.7°F12.1°C 52% 1.3 mph SSW2.1 kmh SSW 2.2 mph3.5 kmh 29.87 in1011.5 mb 0.00 in0.0 mm 0.00 in0.0 mm 0.00 in0.0 mm
11:55 PM 72.1°F22.3°C 53.0°F11.7°C 51% 1.2 mph WSW1.9 kmh WSW 2.2 mph3.5 kmh 29.87 in1011.5 mb 0.00 in0.0 mm 0.00 in0.0 mm 0.00 in0.0 mm